Date,TemperatureHighF,TemperatureAvgF,TemperatureLowF,DewpointHighF,DewpointAvgF,DewpointLowF,HumidityHigh,HumidityAvg,HumidityLow,PressureMaxIn,PressureMinIn,WindSpeedMaxMPH,WindSpeedAvgMPH,GustSpeedMaxMPH,PrecipitationSumIn
2013-6-1,71.6,60.8,50.9,54.8,51.0,46.6,98,73,48,30.24,30.03,17,8,17,0.00
2013-6-2,67.6,59.0,49.6,50.9,44.1,40.0,85,60,40,30.36,30.21,15,7,15,0.00
2013-6-3,66.0,56.0,47.1,48.3,43.0,39.6,91,64,43,30.39,30.24,17,8,17,0.00
2013-6-4,68.9,57.6,47.5,46.7,44.5,42.1,92,65,40,30.30,30.09,18,9,18,0.00
2013-6-5,78.3,64.7,50.7,56.0,49.9,45.0,96,63,35,30.09,30.00,17,6,17,0.00
2013-6-6,84.6,68.8,56.7,58.2,54.5,51.4,86,63,38,30.06,29.97,12,4,12,0.00
2013-6-7,84.0,71.3,59.2,57.9,54.8,49.6,89,61,32,30.09,30.03,21,6,21,0.00
2013-6-8,78.6,66.7,58.8,59.3,53.1,48.6,85,63,39,30.06,29.94,13,6,22,0.00
2013-6-9,78.5,57.2,54.9,70.3,53.3,50.9,95,87,75,29.91,29.83,23,6,23,0.08
2013-6-11,63.9,63.8,63.7,59.3,58.9,58.3,85,84,82,30.06,30.03,10,6,10,0.00
2013-6-12,71.1,66.1,62.1,64.0,60.4,57.8,92,82,65,30.09,30.00,16,8,16,0.00
2013-6-13,67.6,62.2,54.5,63.9,57.1,47.0,95,84,57,30.18,30.00,17,7,17,0.21
2013-6-14,71.6,60.3,47.1,53.1,47.2,43.7,97,66,43,30.21,29.97,13,4,13,0.00
2013-6-15,67.1,59.1,55.6,54.0,50.3,42.9,82,73,42,30.00,29.88,15,4,15,0.00
2013-6-16,76.5,64.2,55.6,51.1,46.9,42.9,74,55,37,30.06,29.88,13,4,13,0.00
2013-6-17,81.0,66.6,58.5,67.9,59.5,50.5,98,79,59,29.94,29.77,20,5,20,0.38
2013-6-18,86.0,73.7,63.5,70.8,64.2,57.6,98,75,42,29.97,29.88,11,3,11,0.12
2013-6-19,83.7,69.4,63.1,71.1,64.7,60.2,98,86,58,29.97,29.88,14,6,14,0.43
2013-6-20,74.3,66.7,62.6,70.3,62.4,55.6,98,87,60,29.97,29.85,14,4,14,0.37
2013-6-21,68.0,63.0,58.3,61.6,57.1,53.3,97,82,63,30.03,29.88,14,7,14,0.46
2013-6-22,64.9,62.2,58.8,60.1,56.5,51.1,98,82,63,30.03,29.88,24,10,24,0.03
2013-6-23,65.3,59.4,55.9,59.3,51.7,48.8,89,76,65,30.12,29.91,24,11,24,0.17
2013-6-24,63.0,57.6,51.4,53.5,48.4,41.6,92,73,51,30.33,30.12,18,7,18,0.00
2013-6-25,67.8,57.4,46.6,54.8,45.6,40.1,96,68,44,30.42,30.30,10,4,10,0.00
2013-6-26,70.5,60.5,48.6,50.8,45.5,42.7,85,60,43,30.42,30.36,11,4,11,0.00
2013-6-27,71.2,61.5,54.1,56.7,48.7,44.6,90,64,45,30.36,30.24,12,5,12,0.00
2013-6-28,64.2,59.6,54.5,59.1,55.2,47.4,95,85,65,30.24,30.12,12,5,12,0.04
2013-6-29,72.0,63.5,57.2,61.7,53.9,45.7,98,74,45,30.30,30.12,17,8,17,0.00
2013-6-30,79.5,65.3,51.1,58.9,52.9,47.1,91,67,43,30.33,30.12,11,3,11,0.00